sensor_id;sensor_type;location;lat;lon;timestamp;P1;durP1;ratioP1;P2;durP2;ratioP2
15841;SDS011;8021;48.022;11.812;2023-02-28T00:00:51;0.87;;;0.87;;
15841;SDS011;8021;48.022;11.812;2023-02-28T00:03:19;0.80;;;0.80;;
15841;SDS011;8021;48.022;11.812;2023-02-28T00:05:46;0.70;;;0.70;;
15841;SDS011;8021;48.022;11.812;2023-02-28T00:08:14;0.87;;;0.87;;
15841;SDS011;8021;48.022;11.812;2023-02-28T00:10:42;0.97;;;0.97;;
15841;SDS011;8021;48.022;11.812;2023-02-28T00:13:09;0.80;;;0.80;;
15841;SDS011;8021;48.022;11.812;2023-02-28T00:15:37;1.00;;;1.00;;
15841;SDS011;8021;48.022;11.812;2023-02-28T00:18:05;0.70;;;0.70;;
15841;SDS011;8021;48.022;11.812;2023-02-28T00:20:33;0.70;;;0.70;;
15841;SDS011;8021;48.022;11.812;2023-02-28T00:23:00;0.67;;;0.67;;
15841;SDS011;8021;48.022;11.812;2023-02-28T00:25:28;0.70;;;0.70;;
15841;SDS011;8021;48.022;11.812;2023-02-28T00:27:55;0.80;;;0.80;;
15841;SDS011;8021;48.022;11.812;2023-02-28T00:30:24;0.80;;;0.80;;
15841;SDS011;8021;48.022;11.812;2023-02-28T00:32:52;0.60;;;0.60;;
15841;SDS011;8021;48.022;11.812;2023-02-28T00:35:21;0.80;;;0.80;;
15841;SDS011;8021;48.022;11.812;2023-02-28T00:37:48;0.70;;;0.70;;
15841;SDS011;8021;48.022;11.812;2023-02-28T00:40:16;0.80;;;0.80;;
15841;SDS011;8021;48.022;11.812;2023-02-28T00:42:43;0.90;;;0.90;;
15841;SDS011;8021;48.022;11.812;2023-02-28T00:45:11;1.00;;;1.00;;
15841;SDS011;8021;48.022;11.812;2023-02-28T00:47:41;0.80;;;0.80;;
15841;SDS011;8021;48.022;11.812;2023-02-28T00:50:10;1.00;;;1.00;;
15841;SDS011;8021;48.022;11.812;2023-02-28T00:52:39;0.83;;;0.83;;
15841;SDS011;8021;48.022;11.812;2023-02-28T00:55:06;0.83;;;0.83;;
15841;SDS011;8021;48.022;11.812;2023-02-28T00:57:34;0.77;;;0.77;;
15841;SDS011;8021;48.022;11.812;2023-02-28T01:00:03;0.83;;;0.83;;
15841;SDS011;8021;48.022;11.812;2023-02-28T01:02:32;0.83;;;0.83;;
15841;SDS011;8021;48.022;11.812;2023-02-28T01:05:00;0.70;;;0.70;;
15841;SDS011;8021;48.022;11.812;2023-02-28T01:07:29;0.80;;;0.80;;
15841;SDS011;8021;48.022;11.812;2023-02-28T01:09:58;0.90;;;0.90;;
15841;SDS011;8021;48.022;11.812;2023-02-28T01:12:25;0.70;;;0.70;;
15841;SDS011;8021;48.022;11.812;2023-02-28T01:14:56;0.90;;;0.90;;
15841;SDS011;8021;48.022;11.812;2023-02-28T01:17:24;0.80;;;0.80;;
15841;SDS011;8021;48.022;11.812;2023-02-28T01:19:52;0.73;;;0.73;;
15841;SDS011;8021;48.022;11.812;2023-02-28T01:22:20;0.97;;;0.97;;
15841;SDS011;8021;48.022;11.812;2023-02-28T01:24:47;0.83;;;0.83;;
15841;SDS011;8021;48.022;11.812;2023-02-28T01:27:16;0.50;;;0.50;;
15841;SDS011;8021;48.022;11.812;2023-02-28T01:29:44;0.90;;;0.90;;
15841;SDS011;8021;48.022;11.812;2023-02-28T01:32:11;0.70;;;0.70;;
15841;SDS011;8021;48.022;11.812;2023-02-28T01:34:39;1.00;;;1.00;;
15841;SDS011;8021;48.022;11.812;2023-02-28T01:37:06;1.00;;;1.00;;
15841;SDS011;8021;48.022;11.812;2023-02-28T01:39:33;0.80;;;0.80;;
15841;SDS011;8021;48.022;11.812;2023-02-28T01:42:02;0.80;;;0.80;;
15841;SDS011;8021;48.022;11.812;2023-02-28T01:47:19;0.70;;;0.70;;
15841;SDS011;8021;48.022;11.812;2023-02-28T01:49:47;0.87;;;0.87;;
15841;SDS011;8021;48.022;11.812;2023-02-28T01:52:15;0.70;;;0.70;;
15841;SDS011;8021;48.022;11.812;2023-02-28T01:54:45;0.70;;;0.70;;
15841;SDS011;8021;48.022;11.812;2023-02-28T01:57:14;0.80;;;0.80;;
15841;SDS011;8021;48.022;11.812;2023-02-28T01:59:43;0.83;;;0.83;;
15841;SDS011;8021;48.022;11.812;2023-02-28T02:02:12;1.00;;;1.00;;
15841;SDS011;8021;48.022;11.812;2023-02-28T02:04:43;0.77;;;0.77;;
15841;SDS011;8021;48.022;11.812;2023-02-28T02:07:13;0.80;;;0.80;;
15841;SDS011;8021;48.022;11.812;2023-02-28T02:09:43;1.07;;;1.07;;
15841;SDS011;8021;48.022;11.812;2023-02-28T02:12:12;0.67;;;0.67;;
15841;SDS011;8021;48.022;11.812;2023-02-28T02:14:48;0.97;;;0.97;;
15841;SDS011;8021;48.022;11.812;2023-02-28T02:17:20;0.80;;;0.80;;
15841;SDS011;8021;48.022;11.812;2023-02-28T02:20:05;0.90;;;0.90;;
15841;SDS011;8021;48.022;11.812;2023-02-28T02:22:48;0.70;;;0.70;;
15841;SDS011;8021;48.022;11.812;2023-02-28T02:25:21;0.80;;;0.80;;
15841;SDS011;8021;48.022;11.812;2023-02-28T02:27:57;0.70;;;0.70;;
15841;SDS011;8021;48.022;11.812;2023-02-28T02:30:33;0.90;;;0.90;;
15841;SDS011;8021;48.022;11.812;2023-02-28T02:33:14;1.00;;;1.00;;
15841;SDS011;8021;48.022;11.812;2023-02-28T02:35:47;0.80;;;0.80;;
15841;SDS011;8021;48.022;11.812;2023-02-28T02:38:19;0.80;;;0.80;;
15841;SDS011;8021;48.022;11.812;2023-02-28T02:40:50;0.90;;;0.90;;
15841;SDS011;8021;48.022;11.812;2023-02-28T02:43:22;1.00;;;1.00;;
15841;SDS011;8021;48.022;11.812;2023-02-28T02:45:55;0.77;;;0.77;;
15841;SDS011;8021;48.022;11.812;2023-02-28T02:48:24;0.80;;;0.80;;
15841;SDS011;8021;48.022;11.812;2023-02-28T02:50:55;1.00;;;1.00;;
15841;SDS011;8021;48.022;11.812;2023-02-28T02:53:24;0.70;;;0.70;;
15841;SDS011;8021;48.022;11.812;2023-02-28T02:55:54;0.70;;;0.70;;
15841;SDS011;8021;48.022;11.812;2023-02-28T02:58:24;0.80;;;0.80;;
15841;SDS011;8021;48.022;11.812;2023-02-28T03:00:53;0.90;;;0.90;;
15841;SDS011;8021;48.022;11.812;2023-02-28T03:03:22;0.90;;;0.90;;
15841;SDS011;8021;48.022;11.812;2023-02-28T03:05:56;0.90;;;0.90;;
15841;SDS011;8021;48.022;11.812;2023-02-28T03:08:24;0.73;;;0.73;;
15841;SDS011;8021;48.022;11.812;2023-02-28T03:10:52;0.77;;;0.77;;
15841;SDS011;8021;48.022;11.812;2023-02-28T03:13:39;0.70;;;0.70;;
15841;SDS011;8021;48.022;11.812;2023-02-28T03:16:24;0.80;;;0.80;;
15841;SDS011;8021;48.022;11.812;2023-02-28T03:18:58;0.63;;;0.63;;
15841;SDS011;8021;48.022;11.812;2023-02-28T03:21:34;0.50;;;0.50;;
15841;SDS011;8021;48.022;11.812;2023-02-28T03:24:03;1.00;;;1.00;;
15841;SDS011;8021;48.022;11.812;2023-02-28T03:26:32;0.80;;;0.80;;
15841;SDS011;8021;48.022;11.812;2023-02-28T03:29:02;0.83;;;0.83;;
15841;SDS011;8021;48.022;11.812;2023-02-28T03:31:31;0.90;;;0.90;;
15841;SDS011;8021;48.022;11.812;2023-02-28T03:34:01;1.00;;;1.00;;
15841;SDS011;8021;48.022;11.812;2023-02-28T03:36:31;0.70;;;0.70;;
15841;SDS011;8021;48.022;11.812;2023-02-28T03:39:01;1.00;;;1.00;;
15841;SDS011;8021;48.022;11.812;2023-02-28T03:41:31;0.83;;;0.83;;
15841;SDS011;8021;48.022;11.812;2023-02-28T03:44:02;0.90;;;0.90;;
15841;SDS011;8021;48.022;11.812;2023-02-28T03:46:31;0.80;;;0.80;;
15841;SDS011;8021;48.022;11.812;2023-02-28T03:49:00;0.90;;;0.90;;
15841;SDS011;8021;48.022;11.812;2023-02-28T03:51:29;0.80;;;0.80;;
15841;SDS011;8021;48.022;11.812;2023-02-28T03:53:57;0.80;;;0.80;;
15841;SDS011;8021;48.022;11.812;2023-02-28T03:56:28;0.90;;;0.90;;
15841;SDS011;8021;48.022;11.812;2023-02-28T03:58:59;0.80;;;0.80;;
15841;SDS011;8021;48.022;11.812;2023-02-28T04:01:28;0.87;;;0.87;;
15841;SDS011;8021;48.022;11.812;2023-02-28T04:03:58;0.80;;;0.80;;
15841;SDS011;8021;48.022;11.812;2023-02-28T04:06:25;1.00;;;1.00;;
15841;SDS011;8021;48.022;11.812;2023-02-28T04:08:53;0.70;;;0.70;;
15841;SDS011;8021;48.022;11.812;2023-02-28T04:11:22;0.80;;;0.80;;
15841;SDS011;8021;48.022;11.812;2023-02-28T04:13:51;0.63;;;0.63;;
15841;SDS011;8021;48.022;11.812;2023-02-28T04:16:18;0.83;;;0.83;;
15841;SDS011;8021;48.022;11.812;2023-02-28T04:19:00;0.90;;;0.90;;
15841;SDS011;8021;48.022;11.812;2023-02-28T04:21:29;1.00;;;1.00;;
15841;SDS011;8021;48.022;11.812;2023-02-28T04:23:57;1.00;;;1.00;;
15841;SDS011;8021;48.022;11.812;2023-02-28T04:26:28;0.90;;;0.90;;
15841;SDS011;8021;48.022;11.812;2023-02-28T04:28:57;0.93;;;0.93;;
15841;SDS011;8021;48.022;11.812;2023-02-28T04:31:24;0.83;;;0.83;;
15841;SDS011;8021;48.022;11.812;2023-02-28T04:33:52;0.80;;;0.80;;
15841;SDS011;8021;48.022;11.812;2023-02-28T04:36:20;0.70;;;0.70;;
15841;SDS011;8021;48.022;11.812;2023-02-28T04:38:49;0.70;;;0.70;;
15841;SDS011;8021;48.022;11.812;2023-02-28T04:41:16;0.90;;;0.90;;
15841;SDS011;8021;48.022;11.812;2023-02-28T04:43:44;0.97;;;0.97;;
15841;SDS011;8021;48.022;11.812;2023-02-28T04:46:13;0.90;;;0.90;;
15841;SDS011;8021;48.022;11.812;2023-02-28T04:48:40;0.90;;;0.90;;
15841;SDS011;8021;48.022;11.812;2023-02-28T04:51:09;0.70;;;0.70;;
15841;SDS011;8021;48.022;11.812;2023-02-28T04:53:37;0.90;;;0.90;;
15841;SDS011;8021;48.022;11.812;2023-02-28T04:56:05;0.80;;;0.80;;
15841;SDS011;8021;48.022;11.812;2023-02-28T04:58:33;0.80;;;0.80;;
15841;SDS011;8021;48.022;11.812;2023-02-28T05:01:01;0.70;;;0.70;;
15841;SDS011;8021;48.022;11.812;2023-02-28T05:03:30;0.80;;;0.80;;
15841;SDS011;8021;48.022;11.812;2023-02-28T05:05:58;0.90;;;0.90;;
15841;SDS011;8021;48.022;11.812;2023-02-28T05:08:25;0.93;;;0.93;;
15841;SDS011;8021;48.022;11.812;2023-02-28T05:10:55;0.87;;;0.87;;
15841;SDS011;8021;48.022;11.812;2023-02-28T05:13:23;0.87;;;0.87;;
15841;SDS011;8021;48.022;11.812;2023-02-28T05:15:50;0.80;;;0.80;;
15841;SDS011;8021;48.022;11.812;2023-02-28T05:18:18;0.77;;;0.77;;
15841;SDS011;8021;48.022;11.812;2023-02-28T05:20:47;0.90;;;0.90;;
15841;SDS011;8021;48.022;11.812;2023-02-28T05:23:14;0.80;;;0.80;;
15841;SDS011;8021;48.022;11.812;2023-02-28T05:25:43;0.60;;;0.60;;
15841;SDS011;8021;48.022;11.812;2023-02-28T05:28:13;0.73;;;0.73;;
15841;SDS011;8021;48.022;11.812;2023-02-28T05:30:47;0.70;;;0.70;;
15841;SDS011;8021;48.022;11.812;2023-02-28T05:33:15;0.90;;;0.90;;
15841;SDS011;8021;48.022;11.812;2023-02-28T05:35:42;0.93;;;0.93;;
15841;SDS011;8021;48.022;11.812;2023-02-28T05:38:11;0.80;;;0.80;;
15841;SDS011;8021;48.022;11.812;2023-02-28T05:40:39;0.80;;;0.80;;
15841;SDS011;8021;48.022;11.812;2023-02-28T05:43:08;0.90;;;0.90;;
15841;SDS011;8021;48.022;11.812;2023-02-28T05:45:36;0.90;;;0.90;;
15841;SDS011;8021;48.022;11.812;2023-02-28T05:48:04;0.90;;;0.90;;
15841;SDS011;8021;48.022;11.812;2023-02-28T05:50:32;0.80;;;0.80;;
15841;SDS011;8021;48.022;11.812;2023-02-28T05:52:59;0.80;;;0.80;;
15841;SDS011;8021;48.022;11.812;2023-02-28T05:55:28;0.67;;;0.67;;
15841;SDS011;8021;48.022;11.812;2023-02-28T05:57:55;0.80;;;0.80;;
15841;SDS011;8021;48.022;11.812;2023-02-28T06:00:23;0.80;;;0.80;;
15841;SDS011;8021;48.022;11.812;2023-02-28T06:02:50;0.83;;;0.83;;
15841;SDS011;8021;48.022;11.812;2023-02-28T06:05:22;0.70;;;0.70;;
15841;SDS011;8021;48.022;11.812;2023-02-28T06:07:49;0.70;;;0.70;;
15841;SDS011;8021;48.022;11.812;2023-02-28T06:10:17;0.80;;;0.80;;
15841;SDS011;8021;48.022;11.812;2023-02-28T06:12:47;1.10;;;1.10;;
15841;SDS011;8021;48.022;11.812;2023-02-28T06:15:39;0.53;;;0.53;;
15841;SDS011;8021;48.022;11.812;2023-02-28T06:18:06;0.90;;;0.90;;
15841;SDS011;8021;48.022;11.812;2023-02-28T06:20:34;0.80;;;0.80;;
15841;SDS011;8021;48.022;11.812;2023-02-28T06:23:02;0.90;;;0.90;;
15841;SDS011;8021;48.022;11.812;2023-02-28T06:25:29;0.90;;;0.90;;
15841;SDS011;8021;48.022;11.812;2023-02-28T06:27:58;0.80;;;0.80;;
15841;SDS011;8021;48.022;11.812;2023-02-28T06:30:26;0.70;;;0.70;;
15841;SDS011;8021;48.022;11.812;2023-02-28T06:32:57;0.90;;;0.90;;
15841;SDS011;8021;48.022;11.812;2023-02-28T06:35:25;0.83;;;0.83;;
15841;SDS011;8021;48.022;11.812;2023-02-28T06:37:53;0.87;;;0.87;;
15841;SDS011;8021;48.022;11.812;2023-02-28T06:40:21;0.80;;;0.80;;
15841;SDS011;8021;48.022;11.812;2023-02-28T06:42:48;0.90;;;0.90;;
15841;SDS011;8021;48.022;11.812;2023-02-28T06:45:17;0.90;;;0.90;;
15841;SDS011;8021;48.022;11.812;2023-02-28T06:47:44;0.97;;;0.97;;
15841;SDS011;8021;48.022;11.812;2023-02-28T06:50:18;0.70;;;0.70;;
15841;SDS011;8021;48.022;11.812;2023-02-28T06:52:46;0.80;;;0.80;;
15841;SDS011;8021;48.022;11.812;2023-02-28T06:55:14;0.80;;;0.80;;
15841;SDS011;8021;48.022;11.812;2023-02-28T06:57:41;0.67;;;0.67;;
15841;SDS011;8021;48.022;11.812;2023-02-28T07:00:09;0.70;;;0.70;;
15841;SDS011;8021;48.022;11.812;2023-02-28T07:02:38;0.70;;;0.70;;
15841;SDS011;8021;48.022;11.812;2023-02-28T07:05:06;0.70;;;0.70;;
15841;SDS011;8021;48.022;11.812;2023-02-28T07:07:34;0.70;;;0.70;;
15841;SDS011;8021;48.022;11.812;2023-02-28T07:10:02;0.80;;;0.80;;
15841;SDS011;8021;48.022;11.812;2023-02-28T07:12:30;0.70;;;0.70;;
15841;SDS011;8021;48.022;11.812;2023-02-28T07:14:57;0.70;;;0.70;;
15841;SDS011;8021;48.022;11.812;2023-02-28T07:17:25;0.70;;;0.70;;
15841;SDS011;8021;48.022;11.812;2023-02-28T07:19:54;0.70;;;0.70;;
15841;SDS011;8021;48.022;11.812;2023-02-28T07:22:21;0.90;;;0.90;;
15841;SDS011;8021;48.022;11.812;2023-02-28T07:24:49;0.87;;;0.87;;
15841;SDS011;8021;48.022;11.812;2023-02-28T07:27:17;0.90;;;0.90;;
15841;SDS011;8021;48.022;11.812;2023-02-28T07:29:50;0.70;;;0.70;;
15841;SDS011;8021;48.022;11.812;2023-02-28T07:32:17;0.70;;;0.70;;
15841;SDS011;8021;48.022;11.812;2023-02-28T07:34:45;0.80;;;0.80;;
15841;SDS011;8021;48.022;11.812;2023-02-28T07:37:14;0.80;;;0.80;;
15841;SDS011;8021;48.022;11.812;2023-02-28T07:39:41;0.80;;;0.80;;
15841;SDS011;8021;48.022;11.812;2023-02-28T07:42:09;0.70;;;0.70;;
15841;SDS011;8021;48.022;11.812;2023-02-28T07:44:38;0.80;;;0.80;;
15841;SDS011;8021;48.022;11.812;2023-02-28T07:47:07;0.90;;;0.90;;
15841;SDS011;8021;48.022;11.812;2023-02-28T07:49:35;0.83;;;0.83;;
15841;SDS011;8021;48.022;11.812;2023-02-28T07:52:02;0.83;;;0.83;;
15841;SDS011;8021;48.022;11.812;2023-02-28T07:54:31;0.70;;;0.70;;
15841;SDS011;8021;48.022;11.812;2023-02-28T07:56:59;0.70;;;0.70;;
15841;SDS011;8021;48.022;11.812;2023-02-28T07:59:26;0.80;;;0.80;;
15841;SDS011;8021;48.022;11.812;2023-02-28T08:01:57;0.77;;;0.77;;
15841;SDS011;8021;48.022;11.812;2023-02-28T08:04:25;1.00;;;1.00;;
15841;SDS011;8021;48.022;11.812;2023-02-28T08:06:53;0.80;;;0.80;;
15841;SDS011;8021;48.022;11.812;2023-02-28T08:09:22;0.90;;;0.90;;
15841;SDS011;8021;48.022;11.812;2023-02-28T08:11:51;0.70;;;0.70;;
15841;SDS011;8021;48.022;11.812;2023-02-28T08:14:18;0.70;;;0.70;;
15841;SDS011;8021;48.022;11.812;2023-02-28T08:16:46;0.87;;;0.87;;
15841;SDS011;8021;48.022;11.812;2023-02-28T08:19:13;0.80;;;0.80;;
15841;SDS011;8021;48.022;11.812;2023-02-28T08:21:41;0.63;;;0.63;;
15841;SDS011;8021;48.022;11.812;2023-02-28T08:24:08;0.70;;;0.70;;
15841;SDS011;8021;48.022;11.812;2023-02-28T08:26:36;0.90;;;0.90;;
15841;SDS011;8021;48.022;11.812;2023-02-28T08:29:04;0.80;;;0.80;;
15841;SDS011;8021;48.022;11.812;2023-02-28T08:31:32;0.80;;;0.80;;
15841;SDS011;8021;48.022;11.812;2023-02-28T08:34:04;0.80;;;0.80;;
15841;SDS011;8021;48.022;11.812;2023-02-28T08:36:31;0.80;;;0.80;;
15841;SDS011;8021;48.022;11.812;2023-02-28T08:38:59;0.83;;;0.83;;
15841;SDS011;8021;48.022;11.812;2023-02-28T08:41:26;0.90;;;0.90;;
15841;SDS011;8021;48.022;11.812;2023-02-28T08:43:54;0.80;;;0.80;;
15841;SDS011;8021;48.022;11.812;2023-02-28T08:46:23;0.80;;;0.80;;
15841;SDS011;8021;48.022;11.812;2023-02-28T08:48:51;0.80;;;0.80;;
15841;SDS011;8021;48.022;11.812;2023-02-28T08:51:19;0.70;;;0.70;;
15841;SDS011;8021;48.022;11.812;2023-02-28T08:53:52;0.80;;;0.80;;
15841;SDS011;8021;48.022;11.812;2023-02-28T08:56:20;0.70;;;0.70;;
15841;SDS011;8021;48.022;11.812;2023-02-28T08:58:49;0.60;;;0.60;;
15841;SDS011;8021;48.022;11.812;2023-02-28T09:01:17;0.70;;;0.70;;
15841;SDS011;8021;48.022;11.812;2023-02-28T09:03:47;0.60;;;0.60;;
15841;SDS011;8021;48.022;11.812;2023-02-28T09:06:15;0.60;;;0.60;;
15841;SDS011;8021;48.022;11.812;2023-02-28T09:08:43;0.60;;;0.60;;
15841;SDS011;8021;48.022;11.812;2023-02-28T09:11:11;0.73;;;0.73;;
15841;SDS011;8021;48.022;11.812;2023-02-28T09:13:39;0.77;;;0.77;;
15841;SDS011;8021;48.022;11.812;2023-02-28T09:16:07;0.70;;;0.70;;
15841;SDS011;8021;48.022;11.812;2023-02-28T09:18:35;0.70;;;0.70;;
15841;SDS011;8021;48.022;11.812;2023-02-28T09:21:05;0.60;;;0.60;;
15841;SDS011;8021;48.022;11.812;2023-02-28T09:23:33;0.60;;;0.60;;
15841;SDS011;8021;48.022;11.812;2023-02-28T09:26:00;1.03;;;1.03;;
15841;SDS011;8021;48.022;11.812;2023-02-28T09:28:27;0.60;;;0.60;;
15841;SDS011;8021;48.022;11.812;2023-02-28T09:30:55;0.67;;;0.67;;
15841;SDS011;8021;48.022;11.812;2023-02-28T09:33:23;0.60;;;0.60;;
15841;SDS011;8021;48.022;11.812;2023-02-28T09:35:52;0.50;;;0.50;;
15841;SDS011;8021;48.022;11.812;2023-02-28T09:38:26;0.60;;;0.60;;
15841;SDS011;8021;48.022;11.812;2023-02-28T09:40:55;0.50;;;0.50;;
15841;SDS011;8021;48.022;11.812;2023-02-28T09:43:23;0.80;;;0.80;;
15841;SDS011;8021;48.022;11.812;2023-02-28T09:45:53;0.60;;;0.60;;
15841;SDS011;8021;48.022;11.812;2023-02-28T09:48:25;0.60;;;0.60;;
15841;SDS011;8021;48.022;11.812;2023-02-28T09:50:55;0.60;;;0.60;;
15841;SDS011;8021;48.022;11.812;2023-02-28T09:53:28;0.60;;;0.60;;
15841;SDS011;8021;48.022;11.812;2023-02-28T09:56:25;0.80;;;0.80;;
15841;SDS011;8021;48.022;11.812;2023-02-28T09:58:57;0.60;;;0.60;;
15841;SDS011;8021;48.022;11.812;2023-02-28T10:01:27;0.67;;;0.67;;
15841;SDS011;8021;48.022;11.812;2023-02-28T10:03:59;0.70;;;0.70;;
15841;SDS011;8021;48.022;11.812;2023-02-28T10:06:28;0.60;;;0.60;;
15841;SDS011;8021;48.022;11.812;2023-02-28T10:08:59;0.70;;;0.70;;
15841;SDS011;8021;48.022;11.812;2023-02-28T10:11:28;0.60;;;0.60;;
15841;SDS011;8021;48.022;11.812;2023-02-28T10:13:58;0.60;;;0.60;;
15841;SDS011;8021;48.022;11.812;2023-02-28T10:16:31;0.60;;;0.60;;
15841;SDS011;8021;48.022;11.812;2023-02-28T10:19:02;0.60;;;0.60;;
15841;SDS011;8021;48.022;11.812;2023-02-28T10:21:31;0.63;;;0.63;;
15841;SDS011;8021;48.022;11.812;2023-02-28T10:24:04;0.70;;;0.70;;
15841;SDS011;8021;48.022;11.812;2023-02-28T10:26:32;0.60;;;0.60;;
15841;SDS011;8021;48.022;11.812;2023-02-28T10:29:00;0.70;;;0.70;;
15841;SDS011;8021;48.022;11.812;2023-02-28T10:31:29;0.60;;;0.60;;
15841;SDS011;8021;48.022;11.812;2023-02-28T10:33:56;0.90;;;0.90;;
15841;SDS011;8021;48.022;11.812;2023-02-28T10:36:24;0.77;;;0.77;;
15841;SDS011;8021;48.022;11.812;2023-02-28T10:38:51;0.60;;;0.60;;
15841;SDS011;8021;48.022;11.812;2023-02-28T10:41:27;0.60;;;0.60;;
15841;SDS011;8021;48.022;11.812;2023-02-28T10:46:39;0.50;;;0.50;;
15841;SDS011;8021;48.022;11.812;2023-02-28T10:49:11;0.70;;;0.70;;
15841;SDS011;8021;48.022;11.812;2023-02-28T10:51:40;0.80;;;0.80;;
15841;SDS011;8021;48.022;11.812;2023-02-28T10:54:14;0.50;;;0.50;;
15841;SDS011;8021;48.022;11.812;2023-02-28T10:56:43;0.53;;;0.53;;
15841;SDS011;8021;48.022;11.812;2023-02-28T10:59:23;0.70;;;0.70;;
15841;SDS011;8021;48.022;11.812;2023-02-28T11:01:53;0.60;;;0.60;;
15841;SDS011;8021;48.022;11.812;2023-02-28T11:04:32;0.70;;;0.70;;
15841;SDS011;8021;48.022;11.812;2023-02-28T11:07:02;0.60;;;0.60;;
15841;SDS011;8021;48.022;11.812;2023-02-28T11:09:32;0.67;;;0.67;;
15841;SDS011;8021;48.022;11.812;2023-02-28T11:12:02;0.73;;;0.73;;
15841;SDS011;8021;48.022;11.812;2023-02-28T11:14:31;0.50;;;0.50;;
15841;SDS011;8021;48.022;11.812;2023-02-28T11:17:00;0.50;;;0.50;;
15841;SDS011;8021;48.022;11.812;2023-02-28T11:19:31;0.60;;;0.60;;
15841;SDS011;8021;48.022;11.812;2023-02-28T11:22:01;0.50;;;0.50;;
15841;SDS011;8021;48.022;11.812;2023-02-28T11:24:29;0.60;;;0.60;;
15841;SDS011;8021;48.022;11.812;2023-02-28T11:26:57;0.60;;;0.60;;
15841;SDS011;8021;48.022;11.812;2023-02-28T11:29:52;0.57;;;0.57;;
15841;SDS011;8021;48.022;11.812;2023-02-28T11:32:20;0.57;;;0.57;;
15841;SDS011;8021;48.022;11.812;2023-02-28T11:34:59;0.60;;;0.60;;
15841;SDS011;8021;48.022;11.812;2023-02-28T11:37:27;0.60;;;0.60;;
15841;SDS011;8021;48.022;11.812;2023-02-28T11:39:55;0.50;;;0.50;;
15841;SDS011;8021;48.022;11.812;2023-02-28T11:42:36;0.70;;;0.70;;
15841;SDS011;8021;48.022;11.812;2023-02-28T11:45:14;0.60;;;0.60;;
15841;SDS011;8021;48.022;11.812;2023-02-28T11:47:45;0.53;;;0.53;;
15841;SDS011;8021;48.022;11.812;2023-02-28T11:50:23;0.50;;;0.50;;
15841;SDS011;8021;48.022;11.812;2023-02-28T11:52:53;0.60;;;0.60;;
15841;SDS011;8021;48.022;11.812;2023-02-28T11:55:22;0.60;;;0.60;;
15841;SDS011;8021;48.022;11.812;2023-02-28T11:58:05;0.70;;;0.70;;
15841;SDS011;8021;48.022;11.812;2023-02-28T12:00:45;0.60;;;0.60;;
15841;SDS011;8021;48.022;11.812;2023-02-28T12:03:17;0.50;;;0.50;;
15841;SDS011;8021;48.022;11.812;2023-02-28T12:05:49;0.50;;;0.50;;
15841;SDS011;8021;48.022;11.812;2023-02-28T12:08:23;0.50;;;0.50;;
15841;SDS011;8021;48.022;11.812;2023-02-28T12:10:57;0.50;;;0.50;;
15841;SDS011;8021;48.022;11.812;2023-02-28T12:13:29;0.60;;;0.60;;
15841;SDS011;8021;48.022;11.812;2023-02-28T12:16:10;0.40;;;0.40;;
15841;SDS011;8021;48.022;11.812;2023-02-28T12:18:43;0.50;;;0.50;;
15841;SDS011;8021;48.022;11.812;2023-02-28T12:21:14;0.70;;;0.70;;
15841;SDS011;8021;48.022;11.812;2023-02-28T12:23:55;0.45;;;0.45;;
15841;SDS011;8021;48.022;11.812;2023-02-28T12:26:26;0.50;;;0.50;;
15841;SDS011;8021;48.022;11.812;2023-02-28T12:28:57;0.50;;;0.50;;
15841;SDS011;8021;48.022;11.812;2023-02-28T12:31:28;0.50;;;0.50;;
15841;SDS011;8021;48.022;11.812;2023-02-28T12:33:59;0.50;;;0.50;;
15841;SDS011;8021;48.022;11.812;2023-02-28T12:36:27;0.60;;;0.60;;
15841;SDS011;8021;48.022;11.812;2023-02-28T12:38:56;0.40;;;0.40;;
15841;SDS011;8021;48.022;11.812;2023-02-28T12:41:27;0.43;;;0.43;;
15841;SDS011;8021;48.022;11.812;2023-02-28T12:43:58;0.45;;;0.45;;
15841;SDS011;8021;48.022;11.812;2023-02-28T12:46:29;0.40;;;0.40;;
15841;SDS011;8021;48.022;11.812;2023-02-28T12:48:58;0.55;;;0.55;;
15841;SDS011;8021;48.022;11.812;2023-02-28T12:51:26;0.40;;;0.40;;
15841;SDS011;8021;48.022;11.812;2023-02-28T12:53:57;0.40;;;0.40;;
15841;SDS011;8021;48.022;11.812;2023-02-28T12:56:53;0.40;;;0.40;;
15841;SDS011;8021;48.022;11.812;2023-02-28T12:59:23;0.40;;;0.40;;
15841;SDS011;8021;48.022;11.812;2023-02-28T13:04:47;0.40;;;0.40;;
15841;SDS011;8021;48.022;11.812;2023-02-28T13:07:32;0.40;;;0.40;;
15841;SDS011;8021;48.022;11.812;2023-02-28T13:10:04;0.47;;;0.47;;
15841;SDS011;8021;48.022;11.812;2023-02-28T13:12:32;0.50;;;0.50;;
15841;SDS011;8021;48.022;11.812;2023-02-28T13:15:04;0.50;;;0.50;;
15841;SDS011;8021;48.022;11.812;2023-02-28T13:17:32;0.50;;;0.50;;
15841;SDS011;8021;48.022;11.812;2023-02-28T13:20:01;0.50;;;0.50;;
15841;SDS011;8021;48.022;11.812;2023-02-28T13:22:36;0.50;;;0.50;;
15841;SDS011;8021;48.022;11.812;2023-02-28T13:27:47;0.40;;;0.40;;
15841;SDS011;8021;48.022;11.812;2023-02-28T13:33:22;0.47;;;0.47;;
15841;SDS011;8021;48.022;11.812;2023-02-28T13:36:05;0.70;;;0.70;;
15841;SDS011;8021;48.022;11.812;2023-02-28T13:38:34;0.50;;;0.50;;
15841;SDS011;8021;48.022;11.812;2023-02-28T13:44:02;0.60;;;0.60;;
15841;SDS011;8021;48.022;11.812;2023-02-28T13:46:29;0.55;;;0.55;;
15841;SDS011;8021;48.022;11.812;2023-02-28T13:51:41;0.40;;;0.40;;
15841;SDS011;8021;48.022;11.812;2023-02-28T13:54:17;0.50;;;0.50;;
15841;SDS011;8021;48.022;11.812;2023-02-28T13:56:48;0.50;;;0.50;;
15841;SDS011;8021;48.022;11.812;2023-02-28T13:59:22;0.40;;;0.40;;
15841;SDS011;8021;48.022;11.812;2023-02-28T14:01:58;0.60;;;0.60;;
15841;SDS011;8021;48.022;11.812;2023-02-28T14:04:34;0.60;;;0.60;;
15841;SDS011;8021;48.022;11.812;2023-02-28T14:07:08;0.60;;;0.60;;
15841;SDS011;8021;48.022;11.812;2023-02-28T14:09:37;0.50;;;0.50;;
15841;SDS011;8021;48.022;11.812;2023-02-28T14:14:55;0.40;;;0.40;;
15841;SDS011;8021;48.022;11.812;2023-02-28T14:17:24;0.40;;;0.40;;
15841;SDS011;8021;48.022;11.812;2023-02-28T14:19:51;0.40;;;0.40;;
15841;SDS011;8021;48.022;11.812;2023-02-28T14:22:35;0.40;;;0.40;;
15841;SDS011;8021;48.022;11.812;2023-02-28T14:25:08;0.50;;;0.50;;
15841;SDS011;8021;48.022;11.812;2023-02-28T14:27:40;0.50;;;0.50;;
15841;SDS011;8021;48.022;11.812;2023-02-28T14:30:19;0.35;;;0.35;;
15841;SDS011;8021;48.022;11.812;2023-02-28T14:32:58;0.40;;;0.40;;
15841;SDS011;8021;48.022;11.812;2023-02-28T14:35:35;0.40;;;0.40;;
15841;SDS011;8021;48.022;11.812;2023-02-28T14:38:06;0.30;;;0.30;;
15841;SDS011;8021;48.022;11.812;2023-02-28T14:40:38;0.50;;;0.50;;
15841;SDS011;8021;48.022;11.812;2023-02-28T14:43:18;0.40;;;0.40;;
15841;SDS011;8021;48.022;11.812;2023-02-28T14:45:48;0.38;;;0.38;;
15841;SDS011;8021;48.022;11.812;2023-02-28T14:48:16;0.50;;;0.50;;
15841;SDS011;8021;48.022;11.812;2023-02-28T14:50:48;0.52;;;0.52;;
15841;SDS011;8021;48.022;11.812;2023-02-28T14:53:17;0.50;;;0.50;;
15841;SDS011;8021;48.022;11.812;2023-02-28T14:55:46;0.60;;;0.60;;
15841;SDS011;8021;48.022;11.812;2023-02-28T14:58:20;0.40;;;0.40;;
15841;SDS011;8021;48.022;11.812;2023-02-28T15:00:52;0.50;;;0.50;;
15841;SDS011;8021;48.022;11.812;2023-02-28T15:03:20;0.40;;;0.40;;
15841;SDS011;8021;48.022;11.812;2023-02-28T15:05:51;0.50;;;0.50;;
15841;SDS011;8021;48.022;11.812;2023-02-28T15:08:21;0.40;;;0.40;;
15841;SDS011;8021;48.022;11.812;2023-02-28T15:10:53;0.30;;;0.30;;
15841;SDS011;8021;48.022;11.812;2023-02-28T15:13:21;0.40;;;0.40;;
15841;SDS011;8021;48.022;11.812;2023-02-28T15:15:50;0.40;;;0.40;;
15841;SDS011;8021;48.022;11.812;2023-02-28T15:18:30;0.40;;;0.40;;
15841;SDS011;8021;48.022;11.812;2023-02-28T15:20:58;0.47;;;0.47;;
15841;SDS011;8021;48.022;11.812;2023-02-28T15:23:30;0.40;;;0.40;;
15841;SDS011;8021;48.022;11.812;2023-02-28T15:25:58;0.40;;;0.40;;
15841;SDS011;8021;48.022;11.812;2023-02-28T15:28:26;0.50;;;0.50;;